Time;durP1;ratioP1;P1;durP2;ratioP2;P2;SDS_P1;SDS_P2;PMS_P1;PMS_P2;Temp;Humidity;BMP_temperature;BMP_pressure;BME280_temperature;BME280_humidity;BME280_pressure;Samples;Min_cycle;Max_cycle;Signal;HPM_P1;HPM_P2
2022/01/21 00:01:31;;;;;;;5.70;2.53;;;-1.50;99.90;;;;;;4438820;32;20230;-66
2022/01/21 00:03:59;;;;;;;5.07;2.60;;;-1.60;99.90;;;;;;4438732;32;20199;-66
2022/01/21 00:06:26;;;;;;;7.23;2.43;;;-1.60;99.90;;;;;;4436944;32;20171;-66
2022/01/21 00:08:53;;;;;;;7.20;2.53;;;-1.60;99.90;;;;;;4437954;32;20174;-66
2022/01/21 00:11:21;;;;;;;7.30;2.50;;;-1.60;99.90;;;;;;4436948;32;20213;-66
2022/01/21 00:13:48;;;;;;;6.63;2.83;;;-1.60;99.90;;;;;;4437462;32;20398;-66
2022/01/21 00:16:20;;;;;;;7.87;2.50;;;-1.60;99.90;;;;;;4438813;32;20208;-66
2022/01/21 00:18:58;;;;;;;7.57;2.70;;;-1.60;99.90;;;;;;4438340;32;20241;-66
2022/01/21 00:32:29;;;;;;;4.60;2.17;;;-1.70;99.90;;;;;;4440311;32;20253;-66
2022/01/21 00:34:56;;;;;;;8.00;2.27;;;-1.80;99.90;;;;;;4442720;32;20139;-66
2022/01/21 00:37:23;;;;;;;5.47;2.40;;;-1.70;99.90;;;;;;4442132;32;20139;-66
2022/01/21 00:39:55;;;;;;;7.40;2.20;;;-1.80;99.90;;;;;;4440119;32;20432;-66
2022/01/21 00:44:51;;;;;;;5.07;2.20;;;-1.80;99.90;;;;;;4441205;32;20174;-66
2022/01/21 00:47:21;;;;;;;5.80;2.30;;;-1.80;99.90;;;;;;4439473;32;20520;-66
2022/01/21 00:49:48;;;;;;;10.10;2.47;;;-1.70;99.90;;;;;;4440007;32;20171;-66
2022/01/21 00:52:15;;;;;;;7.13;2.50;;;-1.70;99.90;;;;;;4439930;32;20196;-65
2022/01/21 00:54:42;;;;;;;5.67;2.30;;;-1.70;99.90;;;;;;4439563;32;20177;-66
2022/01/21 00:57:09;;;;;;;4.73;2.33;;;-1.70;99.90;;;;;;4441360;32;20193;-66
2022/01/21 00:59:36;;;;;;;5.97;2.13;;;-1.70;99.90;;;;;;4439106;32;20182;-67
2022/01/21 01:02:04;;;;;;;4.50;2.27;;;-1.70;99.90;;;;;;4440799;32;20182;-66
2022/01/21 01:04:32;;;;;;;6.40;2.40;;;-1.70;99.90;;;;;;4439202;32;20428;-66
2022/01/21 01:06:59;;;;;;;5.60;2.33;;;-1.70;99.90;;;;;;4440874;32;20193;-65
2022/01/21 01:09:26;;;;;;;4.23;2.10;;;-1.70;99.90;;;;;;4440790;32;20162;-66
2022/01/21 01:20:03;;;;;;;6.03;2.30;;;-1.80;99.90;;;;;;4439971;32;20430;-65
2022/01/21 01:28:02;;;;;;;5.17;2.23;;;-1.90;99.90;;;;;;4439393;32;20171;-66
2022/01/21 01:30:31;;;;;;;4.90;2.30;;;-1.90;99.90;;;;;;4439329;32;20174;-66
2022/01/21 01:33:00;;;;;;;10.83;2.37;;;-1.90;99.90;;;;;;4440050;32;20190;-66
2022/01/21 01:35:31;;;;;;;6.00;2.43;;;-1.90;99.90;;;;;;4438875;32;20166;-66
2022/01/21 01:40:36;;;;;;;6.57;2.40;;;-1.90;99.90;;;;;;4440983;32;20175;-66
2022/01/21 01:51:20;;;;;;;3.87;1.80;;;-1.90;99.90;;;;;;4438915;32;20210;-65
2022/01/21 01:53:54;;;;;;;5.60;2.00;;;-1.90;99.90;;;;;;4438534;32;20170;-66
2022/01/21 01:56:28;;;;;;;6.53;2.30;;;-1.90;99.90;;;;;;4439214;32;20166;-67
2022/01/21 01:58:56;;;;;;;7.33;2.13;;;-1.90;99.90;;;;;;4439733;32;20146;-66
2022/01/21 02:01:23;;;;;;;4.13;2.03;;;-1.90;99.90;;;;;;4440430;32;20195;-66
2022/01/21 02:03:50;;;;;;;3.57;2.07;;;-1.80;99.90;;;;;;4438520;32;20431;-66
2022/01/21 02:06:17;;;;;;;6.37;2.30;;;-1.90;99.90;;;;;;4438763;32;20538;-66
2022/01/21 02:08:44;;;;;;;7.00;2.40;;;-1.80;99.90;;;;;;4439608;32;20245;-65
2022/01/21 02:11:11;;;;;;;5.43;2.07;;;-1.90;99.90;;;;;;4438173;32;20271;-66
2022/01/21 02:13:43;;;;;;;4.37;2.03;;;-1.90;99.90;;;;;;4440029;32;20503;-65
2022/01/21 02:21:41;;;;;;;4.23;2.83;;;-1.80;99.90;;;;;;4438151;32;20177;-66
2022/01/21 02:24:15;;;;;;;7.43;2.47;;;-1.80;99.90;;;;;;4438098;32;20199;-66
2022/01/21 02:26:43;;;;;;;8.33;2.50;;;-1.80;99.90;;;;;;4438194;32;20157;-65
2022/01/21 02:29:11;;;;;;;7.50;2.17;;;-1.80;99.90;;;;;;4438983;32;20179;-66
2022/01/21 02:31:40;;;;;;;4.17;2.20;;;-1.80;99.90;;;;;;4440007;32;20197;-66
2022/01/21 02:34:08;;;;;;;5.90;2.13;;;-1.80;99.90;;;;;;4437843;32;20173;-66
2022/01/21 02:36:35;;;;;;;6.33;2.20;;;-1.80;99.90;;;;;;4439878;32;20462;-66
2022/01/21 02:39:04;;;;;;;5.30;2.10;;;-1.90;99.90;;;;;;4439376;32;20601;-66
2022/01/21 02:41:31;;;;;;;4.97;2.10;;;-1.90;99.90;;;;;;4438265;32;20178;-66
2022/01/21 02:43:58;;;;;;;6.37;2.20;;;-1.90;99.90;;;;;;4438013;32;20299;-65
2022/01/21 02:46:26;;;;;;;5.33;2.13;;;-1.90;99.90;;;;;;4439388;32;20204;-66
2022/01/21 02:48:53;;;;;;;5.00;1.73;;;-1.90;99.90;;;;;;4439493;32;20136;-67
2022/01/21 02:51:21;;;;;;;6.03;2.10;;;-1.90;99.90;;;;;;4437363;32;20201;-66
2022/01/21 02:56:17;;;;;;;5.80;1.93;;;-2.00;99.90;;;;;;4437640;32;20240;-66
2022/01/21 02:58:46;;;;;;;3.57;1.90;;;-2.00;99.90;;;;;;4437779;32;20198;-66
2022/01/21 03:01:15;;;;;;;7.53;2.20;;;-2.00;99.90;;;;;;4439179;32;20191;-66
2022/01/21 03:03:44;;;;;;;7.10;2.00;;;-2.00;99.90;;;;;;4438572;32;20429;-66
2022/01/21 03:06:14;;;;;;;4.33;1.97;;;-1.90;99.90;;;;;;4438937;32;20376;-66
2022/01/21 03:08:43;;;;;;;4.93;2.13;;;-2.00;99.90;;;;;;4439325;32;20143;-66
2022/01/21 03:11:12;;;;;;;4.87;2.00;;;-2.00;99.90;;;;;;4437847;32;20274;-65
2022/01/21 03:13:40;;;;;;;4.70;2.00;;;-2.00;99.90;;;;;;4437406;32;20571;-66
2022/01/21 03:16:07;;;;;;;5.60;2.00;;;-2.00;99.90;;;;;;4438733;32;20394;-66
2022/01/21 03:18:34;;;;;;;5.63;2.00;;;-2.10;99.90;;;;;;4437240;32;20530;-66
2022/01/21 03:21:01;;;;;;;3.13;1.90;;;-2.10;99.90;;;;;;4437701;32;20174;-66
2022/01/21 03:23:29;;;;;;;4.10;1.80;;;-2.10;99.90;;;;;;4438847;32;20447;-66
2022/01/21 03:25:56;;;;;;;7.03;1.80;;;-2.10;99.90;;;;;;4439230;32;20174;-66
2022/01/21 03:28:23;;;;;;;4.20;1.80;;;-2.20;99.90;;;;;;4439230;32;20566;-66
2022/01/21 03:30:55;;;;;;;5.70;2.10;;;-2.10;99.90;;;;;;4439488;32;20167;-66
2022/01/21 03:33:23;;;;;;;4.37;2.07;;;-2.10;99.90;;;;;;4439046;32;20492;-66
2022/01/21 03:35:53;;;;;;;3.13;1.60;;;-2.10;99.90;;;;;;4424807;32;20235;-66
2022/01/21 03:38:25;;;;;;;4.83;1.80;;;-2.20;99.90;;;;;;4438938;32;20199;-66
2022/01/21 03:40:53;;;;;;;5.37;1.60;;;-2.10;99.90;;;;;;4438978;32;20178;-66
2022/01/21 03:43:22;;;;;;;3.30;1.90;;;-2.10;99.90;;;;;;4437525;32;20176;-66
2022/01/21 03:45:50;;;;;;;5.10;1.77;;;-2.10;99.90;;;;;;4437700;32;20197;-66
2022/01/21 03:48:17;;;;;;;4.10;1.97;;;-2.10;99.90;;;;;;4439049;32;20234;-66
2022/01/21 03:50:45;;;;;;;3.53;1.80;;;-2.10;99.90;;;;;;4439080;32;20194;-66
2022/01/21 03:53:12;;;;;;;5.03;2.00;;;-2.00;99.90;;;;;;4437694;32;20224;-66
2022/01/21 03:55:39;;;;;;;3.53;2.07;;;-2.00;99.90;;;;;;4437183;32;20519;-65
2022/01/21 03:58:08;;;;;;;7.23;1.67;;;-2.00;99.90;;;;;;4438219;32;20203;-65
2022/01/21 04:00:44;;;;;;;4.27;1.53;;;-2.00;99.90;;;;;;4438870;32;20165;-65
2022/01/21 04:03:11;;;;;;;4.03;1.70;;;-2.00;99.90;;;;;;4440214;32;20147;-65
2022/01/21 04:05:38;;;;;;;2.83;1.40;;;-1.90;99.90;;;;;;4441213;32;20524;-65
2022/01/21 04:08:07;;;;;;;3.97;1.70;;;-1.90;99.90;;;;;;4441909;32;20159;-65
2022/01/21 04:10:35;;;;;;;4.30;1.60;;;-1.90;99.90;;;;;;4441433;32;20189;-65
2022/01/21 04:13:03;;;;;;;4.83;1.60;;;-1.90;99.90;;;;;;4440174;32;20185;-65
2022/01/21 04:15:30;;;;;;;2.90;1.60;;;-1.90;99.90;;;;;;4439829;32;20172;-65
2022/01/21 04:17:57;;;;;;;5.30;1.73;;;-1.90;99.90;;;;;;4441354;32;20142;-65
2022/01/21 04:20:24;;;;;;;4.63;1.67;;;-1.90;99.90;;;;;;4427502;32;20194;-65
2022/01/21 04:22:51;;;;;;;4.27;1.77;;;-1.80;99.90;;;;;;4441441;32;20493;-65
2022/01/21 04:25:17;;;;;;;3.70;1.77;;;-1.80;99.90;;;;;;4441324;32;20510;-65
2022/01/21 04:27:44;;;;;;;4.90;1.67;;;-1.80;99.90;;;;;;4441533;32;20174;-65
2022/01/21 04:30:12;;;;;;;3.57;1.53;;;-1.80;99.90;;;;;;4439723;32;20188;-65
2022/01/21 04:32:39;;;;;;;6.00;1.70;;;-1.90;99.90;;;;;;4428547;32;20184;-65
2022/01/21 04:35:06;;;;;;;4.27;1.57;;;-1.80;99.90;;;;;;4442647;32;20181;-65
2022/01/21 04:37:33;;;;;;;2.57;1.33;;;-1.80;99.90;;;;;;4441605;32;20164;-65
2022/01/21 04:40:13;;;;;;;4.20;1.57;;;-1.80;99.90;;;;;;4440111;32;20208;-65
2022/01/21 04:48:19;;;;;;;4.63;1.83;;;-1.70;99.90;;;;;;4439786;32;20171;-65
2022/01/21 04:50:56;;;;;;;6.73;1.90;;;-1.70;99.90;;;;;;4452546;32;20218;-66
2022/01/21 04:53:25;;;;;;;2.83;1.63;;;-1.70;99.90;;;;;;4441060;32;20227;-65
2022/01/21 04:55:52;;;;;;;3.43;1.70;;;-1.70;99.90;;;;;;4440123;32;20184;-65
2022/01/21 04:58:20;;;;;;;5.30;1.73;;;-1.60;99.90;;;;;;4441502;32;20168;-65
2022/01/21 05:00:47;;;;;;;6.40;1.90;;;-1.60;99.90;;;;;;4440897;32;20166;-65
2022/01/21 05:03:15;;;;;;;5.30;1.87;;;-1.60;99.90;;;;;;4438870;32;20609;-65
2022/01/21 05:05:42;;;;;;;3.67;1.70;;;-1.50;99.90;;;;;;4439615;32;20234;-65
2022/01/21 05:08:20;;;;;;;5.17;1.80;;;-1.50;99.90;;;;;;4440618;32;20178;-65
2022/01/21 05:10:47;;;;;;;5.50;1.60;;;-1.50;99.90;;;;;;4439930;32;20193;-65
2022/01/21 05:13:17;;;;;;;5.60;2.00;;;-1.50;99.90;;;;;;4439692;32;20167;-65
2022/01/21 05:16:04;;;;;;;5.47;1.57;;;-1.50;99.90;;;;;;4441653;32;20134;-65
2022/01/21 05:18:31;;;;;;;6.40;2.00;;;-1.40;99.90;;;;;;4440045;32;20173;-65
2022/01/21 05:20:59;;;;;;;6.93;1.77;;;-1.40;99.90;;;;;;4439409;32;20178;-65
2022/01/21 05:23:27;;;;;;;5.40;2.00;;;-1.40;99.90;;;;;;4439757;32;20243;-65
2022/01/21 05:25:55;;;;;;;5.07;1.63;;;-1.40;99.90;;;;;;4441131;32;20170;-65
2022/01/21 05:28:22;;;;;;;4.33;1.60;;;-1.40;99.90;;;;;;4439465;32;20178;-65
2022/01/21 05:30:49;;;;;;;5.03;1.87;;;-1.40;99.90;;;;;;4439313;32;20196;-66
2022/01/21 05:33:16;;;;;;;4.63;2.10;;;-1.40;99.90;;;;;;4440633;32;20178;-65
2022/01/21 05:35:43;;;;;;;5.47;2.00;;;-1.40;99.90;;;;;;4438772;32;20223;-65
2022/01/21 05:38:10;;;;;;;3.50;1.90;;;-1.40;99.90;;;;;;4438817;32;20194;-65
2022/01/21 05:40:37;;;;;;;5.60;1.93;;;-1.40;99.90;;;;;;4439374;32;20232;-65
2022/01/21 05:43:05;;;;;;;4.40;2.03;;;-1.40;99.90;;;;;;4438773;32;20193;-65
2022/01/21 05:48:18;;;;;;;5.47;1.93;;;-1.40;99.90;;;;;;4439237;32;20234;-65
2022/01/21 05:50:45;;;;;;;5.33;2.43;;;-1.40;99.90;;;;;;4440251;32;20278;-65
2022/01/21 05:53:12;;;;;;;5.07;1.93;;;-1.40;99.90;;;;;;4439190;32;20170;-65
2022/01/21 05:55:40;;;;;;;4.17;1.97;;;-1.40;99.90;;;;;;4438539;32;20162;-65
2022/01/21 05:58:13;;;;;;;5.90;2.23;;;-1.40;99.90;;;;;;4439850;32;20237;-65
2022/01/21 06:00:43;;;;;;;6.70;2.20;;;-1.40;99.90;;;;;;4440315;32;20232;-65
2022/01/21 06:03:11;;;;;;;4.43;1.90;;;-1.40;99.90;;;;;;4438429;32;20641;-65
2022/01/21 06:05:38;;;;;;;6.03;2.40;;;-1.40;99.90;;;;;;4440364;32;20234;-65
2022/01/21 06:08:06;;;;;;;5.53;2.00;;;-1.40;99.90;;;;;;4438236;32;20166;-65
2022/01/21 06:10:33;;;;;;;6.97;2.43;;;-1.40;99.90;;;;;;4439044;32;20208;-65
2022/01/21 06:13:00;;;;;;;5.87;2.03;;;-1.40;99.90;;;;;;4426950;32;20197;-65
2022/01/21 06:15:27;;;;;;;3.10;1.87;;;-1.40;99.90;;;;;;4439191;32;20191;-65
2022/01/21 06:17:54;;;;;;;5.43;2.13;;;-1.40;99.90;;;;;;4439553;32;20262;-65
2022/01/21 06:20:20;;;;;;;5.10;2.03;;;-1.40;99.90;;;;;;4425951;32;20187;-65
2022/01/21 06:22:47;;;;;;;4.53;2.10;;;-1.40;99.90;;;;;;4439520;32;20227;-65
2022/01/21 06:25:14;;;;;;;4.90;2.27;;;-1.40;99.90;;;;;;4424523;32;20182;-65
2022/01/21 06:27:41;;;;;;;10.27;2.23;;;-1.30;99.90;;;;;;4439814;32;20407;-65
2022/01/21 06:30:13;;;;;;;4.87;1.80;;;-1.30;99.90;;;;;;4439221;32;20193;-65
2022/01/21 06:32:40;;;;;;;6.60;2.10;;;-1.30;99.90;;;;;;4439107;32;20207;-65
2022/01/21 06:35:09;;;;;;;5.30;2.00;;;-1.30;99.90;;;;;;4438065;32;20233;-65
2022/01/21 06:37:36;;;;;;;4.87;1.90;;;-1.30;99.90;;;;;;4438094;32;20261;-66
2022/01/21 06:40:05;;;;;;;4.07;1.90;;;-1.30;99.90;;;;;;4438617;32;20194;-65
2022/01/21 06:42:32;;;;;;;5.20;1.97;;;-1.30;99.90;;;;;;4439385;32;20431;-65
2022/01/21 06:45:00;;;;;;;5.50;2.00;;;-1.20;99.90;;;;;;4439417;32;20214;-65
2022/01/21 06:47:29;;;;;;;4.43;1.87;;;-1.20;99.90;;;;;;4439437;32;20206;-67
2022/01/21 06:49:59;;;;;;;6.47;2.20;;;-1.20;99.90;;;;;;4427821;32;20182;-66
2022/01/21 06:52:30;;;;;;;7.47;1.90;;;-1.20;99.90;;;;;;4444831;32;20173;-66
2022/01/21 06:54:58;;;;;;;5.87;1.77;;;-1.20;99.90;;;;;;4441612;32;20219;-66
2022/01/21 06:57:26;;;;;;;3.20;1.80;;;-1.20;99.90;;;;;;4439167;32;20197;-66
2022/01/21 06:59:53;;;;;;;4.03;1.80;;;-1.10;99.90;;;;;;4439217;32;20177;-66
2022/01/21 07:02:20;;;;;;;4.77;2.30;;;-1.10;99.90;;;;;;4437651;32;20170;-66
2022/01/21 07:04:48;;;;;;;5.37;2.00;;;-1.10;99.90;;;;;;4437594;32;20430;-65
2022/01/21 07:07:20;;;;;;;4.77;1.80;;;-1.10;99.90;;;;;;4438729;32;20184;-66
2022/01/21 07:09:47;;;;;;;3.03;2.00;;;-1.10;99.90;;;;;;4438161;32;20170;-65
2022/01/21 07:12:14;;;;;;;7.07;2.30;;;-1.10;99.90;;;;;;4438235;32;20175;-65
2022/01/21 07:14:41;;;;;;;4.67;1.80;;;-1.10;99.90;;;;;;4437779;32;20208;-65
2022/01/21 07:17:09;;;;;;;5.70;2.00;;;-1.10;99.90;;;;;;4437388;32;20241;-65
2022/01/21 07:19:35;;;;;;;3.73;1.70;;;-1.10;99.90;;;;;;4438687;32;20173;-66
2022/01/21 07:22:03;;;;;;;5.37;2.00;;;-1.10;99.90;;;;;;4437375;32;20175;-66
2022/01/21 07:24:30;;;;;;;4.73;1.90;;;-1.10;99.90;;;;;;4438871;32;20499;-65
2022/01/21 07:26:57;;;;;;;5.70;1.70;;;-1.10;99.90;;;;;;4439253;32;20176;-66
2022/01/21 07:29:24;;;;;;;4.60;2.03;;;-1.10;99.90;;;;;;4438387;32;20467;-65
2022/01/21 07:31:54;;;;;;;5.57;1.90;;;-1.10;99.90;;;;;;4439897;32;20220;-66
2022/01/21 07:34:23;;;;;;;5.77;1.90;;;-1.10;99.90;;;;;;4437815;32;20193;-65
2022/01/21 07:36:51;;;;;;;5.00;2.10;;;-1.10;99.90;;;;;;4426410;32;20171;-65
2022/01/21 07:39:19;;;;;;;6.80;2.20;;;-1.10;99.90;;;;;;4428930;32;20169;-65
2022/01/21 07:41:50;;;;;;;10.67;2.07;;;-1.10;99.90;;;;;;4441750;32;20138;-65
2022/01/21 07:44:18;;;;;;;5.60;2.17;;;-1.10;99.90;;;;;;4440685;32;20186;-65
2022/01/21 07:46:45;;;;;;;5.10;1.80;;;-1.00;99.90;;;;;;4440879;32;20258;-65
2022/01/21 07:49:14;;;;;;;7.30;2.20;;;-0.80;99.90;;;;;;4441400;32;20197;-65
2022/01/21 07:51:42;;;;;;;5.10;2.20;;;-0.60;99.90;;;;;;4440647;32;20181;-65
2022/01/21 07:54:10;;;;;;;5.63;2.07;;;-0.30;99.90;;;;;;4440186;32;20189;-65
2022/01/21 07:56:37;;;;;;;7.17;2.27;;;-0.10;99.90;;;;;;4442579;32;20139;-65
2022/01/21 07:59:07;;;;;;;2.60;1.90;;;0.10;99.90;;;;;;4440528;32;20182;-65
2022/01/21 08:01:35;;;;;;;7.60;2.70;;;0.20;99.90;;;;;;4440255;32;20170;-65
2022/01/21 08:04:03;;;;;;;4.17;1.93;;;0.10;99.90;;;;;;4440525;32;20189;-65
2022/01/21 08:06:31;;;;;;;6.80;2.50;;;0.10;99.90;;;;;;4439745;32;20594;-66
2022/01/21 08:08:59;;;;;;;4.83;2.00;;;0.30;99.90;;;;;;4441386;32;20178;-65
2022/01/21 08:11:27;;;;;;;4.43;2.00;;;0.30;99.90;;;;;;4440124;32;20197;-65
2022/01/21 08:13:54;;;;;;;3.47;2.17;;;0.40;99.90;;;;;;4449490;32;20177;-65
2022/01/21 08:16:21;;;;;;;6.43;2.10;;;0.50;99.90;;;;;;4455403;32;20245;-65
2022/01/21 08:18:49;;;;;;;5.67;2.10;;;0.50;99.90;;;;;;4442100;32;20491;-65
2022/01/21 08:21:20;;;;;;;4.03;2.10;;;0.50;99.90;;;;;;4439381;32;20170;-65
2022/01/21 08:23:50;;;;;;;5.83;2.07;;;0.50;99.90;;;;;;4439531;32;20215;-65
2022/01/21 08:26:23;;;;;;;5.00;1.97;;;0.70;99.90;;;;;;4441694;32;20166;-65
2022/01/21 08:28:52;;;;;;;5.13;1.90;;;0.70;99.90;;;;;;4440391;32;20162;-65
2022/01/21 08:31:20;;;;;;;5.17;2.17;;;0.80;99.90;;;;;;4441136;32;20233;-67
2022/01/21 08:33:47;;;;;;;4.37;2.10;;;1.00;99.90;;;;;;4439952;32;20197;-66
2022/01/21 08:36:14;;;;;;;4.63;2.10;;;1.10;99.90;;;;;;4440398;32;20187;-67
2022/01/21 08:38:41;;;;;;;4.97;2.00;;;1.00;99.90;;;;;;4439405;32;20200;-67
2022/01/21 08:41:09;;;;;;;4.83;2.20;;;1.30;99.90;;;;;;4439400;32;20174;-67
2022/01/21 08:43:37;;;;;;;4.97;2.00;;;1.30;99.90;;;;;;4441445;32;20415;-66
2022/01/21 08:46:04;;;;;;;3.77;1.83;;;1.30;99.90;;;;;;4440623;32;20174;-66
2022/01/21 08:48:32;;;;;;;4.90;2.20;;;1.40;99.90;;;;;;4440372;32;20190;-65
2022/01/21 08:51:02;;;;;;;3.00;1.70;;;1.40;99.90;;;;;;4439943;32;20178;-65
2022/01/21 08:53:44;;;;;;;4.30;1.80;;;1.20;99.90;;;;;;4438992;32;20204;-65
2022/01/21 08:56:13;;;;;;;3.23;1.80;;;1.10;99.90;;;;;;4439899;32;20226;-65
2022/01/21 08:58:42;;;;;;;5.63;2.10;;;0.90;99.90;;;;;;4439438;32;20208;-65
2022/01/21 09:01:10;;;;;;;3.57;1.90;;;0.90;99.90;;;;;;4439613;32;20194;-65
2022/01/21 09:03:40;;;;;;;4.27;1.80;;;0.70;99.90;;;;;;4439493;32;20597;-65
2022/01/21 09:06:07;;;;;;;4.60;1.77;;;0.70;99.90;;;;;;4439145;32;20175;-64
2022/01/21 09:08:35;;;;;;;3.03;1.70;;;0.60;99.90;;;;;;4439159;32;20204;-65
2022/01/21 09:11:04;;;;;;;5.80;1.97;;;0.60;99.90;;;;;;4439474;32;20492;-64
2022/01/21 09:13:38;;;;;;;3.57;1.80;;;0.60;99.90;;;;;;4439332;32;20189;-65
2022/01/21 09:16:05;;;;;;;4.00;1.80;;;0.60;99.90;;;;;;4439609;32;20177;-65
2022/01/21 09:18:45;;;;;;;3.57;1.97;;;0.50;99.90;;;;;;4438940;32;20205;-65
2022/01/21 09:21:30;;;;;;;5.87;2.30;;;0.50;99.90;;;;;;4438941;32;20244;-65
2022/01/21 09:23:58;;;;;;;7.37;2.53;;;0.60;99.90;;;;;;4439026;32;20205;-66
2022/01/21 09:26:26;;;;;;;5.70;2.43;;;0.50;99.90;;;;;;4439682;32;20201;-66
2022/01/21 09:28:57;;;;;;;5.13;2.57;;;0.50;99.90;;;;;;4438782;32;20177;-65
2022/01/21 09:31:25;;;;;;;7.43;2.50;;;0.50;99.90;;;;;;4433145;32;20178;-64
2022/01/21 09:34:14;;;;;;;6.33;2.80;;;0.40;99.90;;;;;;4439582;32;20198;-65
2022/01/21 09:36:44;;;;;;;4.63;2.30;;;0.40;99.90;;;;;;4439556;32;20186;-65
2022/01/21 09:39:12;;;;;;;4.57;2.30;;;0.40;99.90;;;;;;4449201;32;20162;-65
2022/01/21 09:41:42;;;;;;;6.07;2.40;;;0.30;99.90;;;;;;4463882;32;20178;-65
2022/01/21 09:44:15;;;;;;;5.93;2.60;;;0.20;99.90;;;;;;4454377;32;20166;-66
2022/01/21 09:46:45;;;;;;;5.27;2.70;;;0.10;99.90;;;;;;4442525;32;20536;-65
2022/01/21 09:49:26;;;;;;;6.20;2.30;;;0.20;99.90;;;;;;4456230;32;20165;-65
2022/01/21 09:52:00;;;;;;;5.50;2.37;;;0.30;99.90;;;;;;4456760;32;20200;-66
2022/01/21 09:54:31;;;;;;;6.37;2.90;;;0.20;99.90;;;;;;4450590;32;20232;-65
2022/01/21 09:57:00;;;;;;;5.80;2.40;;;0.30;99.90;;;;;;4454719;32;20526;-65
2022/01/21 09:59:30;;;;;;;6.17;2.57;;;0.30;99.90;;;;;;4454898;32;20205;-65
2022/01/21 10:02:05;;;;;;;6.20;2.50;;;0.30;99.90;;;;;;4453670;32;20249;-66
2022/01/21 10:04:36;;;;;;;6.27;2.93;;;0.30;99.90;;;;;;4454079;32;20165;-65
2022/01/21 10:07:05;;;;;;;4.67;2.23;;;0.30;99.90;;;;;;4454065;32;20170;-65
2022/01/21 10:09:33;;;;;;;4.87;2.40;;;0.50;99.90;;;;;;4453609;32;20174;-65
2022/01/21 10:12:01;;;;;;;5.73;2.20;;;0.50;99.90;;;;;;4445191;32;20519;-65
2022/01/21 10:14:30;;;;;;;5.37;2.63;;;0.40;99.90;;;;;;4470288;32;20145;-65
2022/01/21 10:16:59;;;;;;;6.90;2.47;;;0.40;99.90;;;;;;4470603;32;20464;-65
2022/01/21 10:19:29;;;;;;;4.50;2.17;;;0.40;99.90;;;;;;4455789;32;20199;-65
2022/01/21 10:22:13;;;;;;;6.60;2.63;;;0.30;99.90;;;;;;4455965;32;20535;-65
2022/01/21 10:24:54;;;;;;;5.40;2.30;;;0.20;99.90;;;;;;4456773;32;20527;-65
2022/01/21 10:27:31;;;;;;;7.53;2.70;;;0.20;99.90;;;;;;4456269;32;20379;-65
2022/01/21 10:30:00;;;;;;;5.13;2.43;;;0.20;99.90;;;;;;4470318;32;20481;-65
2022/01/21 10:32:36;;;;;;;4.83;2.20;;;0.20;99.90;;;;;;4456101;32;20223;-66
2022/01/21 10:35:22;;;;;;;4.07;2.20;;;0.30;99.90;;;;;;4456953;32;20414;-66
2022/01/21 10:37:49;;;;;;;4.97;2.40;;;0.30;99.90;;;;;;4470230;32;20187;-66
2022/01/21 10:40:21;;;;;;;6.63;2.60;;;0.30;99.90;;;;;;4455677;32;20607;-65
2022/01/21 10:42:49;;;;;;;7.93;2.30;;;0.40;99.90;;;;;;4470358;32;20434;-66
2022/01/21 10:45:16;;;;;;;8.90;2.70;;;0.50;99.90;;;;;;4450973;32;20174;-66
2022/01/21 10:47:49;;;;;;;5.90;2.23;;;0.50;99.90;;;;;;4453727;32;20229;-66
2022/01/21 10:50:22;;;;;;;4.73;2.10;;;0.60;99.90;;;;;;4453295;32;20177;-66
2022/01/21 10:52:52;;;;;;;5.83;2.40;;;0.50;99.90;;;;;;4452364;32;20538;-66
2022/01/21 10:55:37;;;;;;;4.40;2.13;;;0.50;99.90;;;;;;4452985;32;20212;-66
2022/01/21 10:58:11;;;;;;;5.73;2.03;;;0.60;99.90;;;;;;4454863;32;20138;-66
2022/01/21 11:01:10;;;;;;;8.00;2.43;;;0.70;99.90;;;;;;4453255;32;20551;-66
2022/01/21 11:04:00;;;;;;;4.53;2.07;;;0.70;99.90;;;;;;4453847;32;20161;-65
2022/01/21 11:06:37;;;;;;;7.13;2.13;;;0.70;99.90;;;;;;4453780;32;20257;-65
2022/01/21 11:09:16;;;;;;;5.20;2.10;;;0.70;99.90;;;;;;4453881;32;20211;-66
2022/01/21 11:11:46;;;;;;;4.63;1.90;;;0.70;99.90;;;;;;4452388;32;20185;-66
2022/01/21 11:14:17;;;;;;;3.43;1.73;;;0.60;99.90;;;;;;4452992;32;20174;-66
2022/01/21 11:16:49;;;;;;;3.93;2.00;;;0.70;99.90;;;;;;4453608;32;20142;-65
2022/01/21 11:19:36;;;;;;;4.87;2.20;;;0.70;99.90;;;;;;4452601;32;20170;-66
2022/01/21 11:22:04;;;;;;;5.50;2.00;;;0.70;99.90;;;;;;4452061;32;20448;-66
2022/01/21 11:24:33;;;;;;;5.67;2.23;;;0.90;99.90;;;;;;4452878;32;20178;-66
2022/01/21 11:27:14;;;;;;;4.33;1.93;;;1.00;99.90;;;;;;4452748;32;20181;-65
2022/01/21 11:29:45;;;;;;;4.90;2.13;;;0.90;99.90;;;;;;4453179;32;20239;-65
2022/01/21 11:32:15;;;;;;;4.00;1.93;;;0.70;99.90;;;;;;4452566;32;20182;-66
2022/01/21 11:34:43;;;;;;;4.43;2.10;;;0.80;99.90;;;;;;4452131;32;20270;-65
2022/01/21 11:37:11;;;;;;;7.33;2.17;;;0.80;99.90;;;;;;4454478;32;20142;-65
2022/01/21 11:39:39;;;;;;;5.53;2.07;;;0.80;99.90;;;;;;4451980;32;20321;-66
2022/01/21 11:42:08;;;;;;;6.83;2.33;;;0.90;99.90;;;;;;4452007;32;20230;-65
2022/01/21 11:44:38;;;;;;;5.33;2.23;;;0.80;99.90;;;;;;4452836;32;20246;-65
2022/01/21 11:49:37;;;;;;;4.40;2.20;;;1.00;99.90;;;;;;4437684;32;20278;-66
2022/01/21 11:52:14;;;;;;;5.03;2.30;;;0.90;99.90;;;;;;4438128;32;20214;-65
2022/01/21 11:54:42;;;;;;;5.40;2.10;;;0.90;99.90;;;;;;4436680;32;20242;-65
2022/01/21 11:57:11;;;;;;;6.23;2.27;;;0.90;99.90;;;;;;4436558;32;20174;-66
2022/01/21 11:59:53;;;;;;;8.07;2.70;;;1.20;99.90;;;;;;4437243;32;20267;-66
2022/01/21 12:02:32;;;;;;;10.13;2.50;;;1.40;99.90;;;;;;4437754;32;20194;-66
2022/01/21 12:05:10;;;;;;;8.43;2.47;;;1.10;99.90;;;;;;4438445;32;20407;-66
2022/01/21 12:07:45;;;;;;;7.70;2.73;;;1.20;99.90;;;;;;4436165;32;20174;-66
2022/01/21 12:10:21;;;;;;;6.67;2.30;;;1.30;99.90;;;;;;4436169;32;20262;-66
2022/01/21 12:12:54;;;;;;;6.00;2.20;;;1.30;99.90;;;;;;4436417;32;20174;-66
2022/01/21 12:18:10;;;;;;;5.17;2.17;;;1.20;99.90;;;;;;4450309;32;20174;-65
2022/01/21 12:20:37;;;;;;;7.83;2.60;;;1.20;99.90;;;;;;4436668;32;20202;-65
2022/01/21 12:23:14;;;;;;;4.50;2.30;;;1.20;99.90;;;;;;4437061;32;20466;-65
2022/01/21 12:26:19;;;;;;;4.47;2.50;;;1.00;99.90;;;;;;4441158;32;20150;-65
2022/01/21 12:28:53;;;;;;;5.07;1.90;;;1.00;99.90;;;;;;4439868;32;20178;-66
2022/01/21 12:31:23;;;;;;;5.37;2.30;;;0.90;99.90;;;;;;4440839;32;20191;-65
2022/01/21 12:34:01;;;;;;;4.40;2.30;;;0.80;99.90;;;;;;4439844;32;20174;-65
2022/01/21 12:36:37;;;;;;;4.90;1.97;;;0.80;99.90;;;;;;4445348;32;20253;-65
2022/01/21 12:39:37;;;;;;;3.90;1.97;;;0.60;99.90;;;;;;4451837;32;20182;-67
2022/01/21 12:42:25;;;;;;;3.70;1.90;;;0.60;99.90;;;;;;4448276;32;20265;-65
2022/01/21 12:45:05;;;;;;;4.17;2.03;;;0.60;99.90;;;;;;4456306;32;20576;-65
2022/01/21 12:47:39;;;;;;;6.70;2.10;;;0.60;99.90;;;;;;4454767;32;20181;-66
2022/01/21 12:58:19;;;;;;;4.40;2.00;;;0.80;99.90;;;;;;4438440;32;20420;-65
2022/01/21 13:00:47;;;;;;;4.87;2.03;;;1.00;99.90;;;;;;4439189;32;20178;-65
2022/01/21 13:03:43;;;;;;;4.23;2.10;;;1.00;99.90;;;;;;4439677;32;20216;-65
2022/01/21 13:06:22;;;;;;;4.33;2.03;;;1.00;99.90;;;;;;4440789;32;20170;-65
2022/01/21 13:09:11;;;;;;;6.33;2.17;;;1.00;99.90;;;;;;4441340;32;20182;-65
2022/01/21 13:11:43;;;;;;;5.43;2.10;;;1.00;99.90;;;;;;4438941;32;20289;-65
2022/01/21 13:17:05;;;;;;;4.90;2.13;;;0.90;99.90;;;;;;4452807;32;20252;-66
2022/01/21 13:19:46;;;;;;;3.10;1.93;;;0.90;99.90;;;;;;4454494;32;20206;-65
2022/01/21 13:22:29;;;;;;;9.70;2.40;;;0.80;99.90;;;;;;4454395;32;20188;-65
2022/01/21 13:25:03;;;;;;;3.50;1.80;;;0.70;99.90;;;;;;4454213;32;20182;-65
2022/01/21 13:27:32;;;;;;;4.87;2.10;;;0.60;99.90;;;;;;4453832;32;20212;-65
2022/01/21 13:30:03;;;;;;;4.57;2.13;;;0.50;99.90;;;;;;4457196;32;20486;-65
2022/01/21 13:32:30;;;;;;;4.43;2.13;;;0.50;99.90;;;;;;4454278;32;20219;-65
2022/01/21 13:35:09;;;;;;;4.87;2.50;;;0.40;99.90;;;;;;4454572;32;20227;-66
2022/01/21 13:37:41;;;;;;;7.03;2.40;;;0.40;99.90;;;;;;4455123;32;20236;-66
2022/01/21 13:40:09;;;;;;;5.93;2.70;;;0.50;99.90;;;;;;4454899;32;20242;-65
2022/01/21 13:42:37;;;;;;;5.97;2.83;;;0.50;99.90;;;;;;4455377;32;20169;-65
2022/01/21 13:45:08;;;;;;;5.70;2.40;;;0.40;99.90;;;;;;4453569;32;20209;-66
2022/01/21 13:47:40;;;;;;;5.03;2.23;;;0.30;99.90;;;;;;4453640;32;20250;-65
2022/01/21 13:50:19;;;;;;;7.27;2.53;;;0.40;99.90;;;;;;4452856;32;20179;-66
2022/01/21 13:52:52;;;;;;;5.00;2.53;;;0.30;99.90;;;;;;4453781;32;20196;-65
2022/01/21 13:55:47;;;;;;;6.73;2.60;;;0.30;99.90;;;;;;4456052;32;20138;-65
2022/01/21 13:58:26;;;;;;;7.17;3.10;;;0.30;99.90;;;;;;4454986;32;20244;-65
2022/01/21 14:00:58;;;;;;;5.43;2.50;;;0.30;99.90;;;;;;4453827;32;20186;-65
2022/01/21 14:03:40;;;;;;;8.33;2.90;;;0.30;99.90;;;;;;4455034;32;20412;-66
2022/01/21 14:06:17;;;;;;;6.33;2.73;;;0.20;99.90;;;;;;4454333;32;20169;-66
2022/01/21 14:08:46;;;;;;;6.43;2.60;;;0.20;99.90;;;;;;4454582;32;20520;-66
2022/01/21 14:11:25;;;;;;;7.10;2.80;;;0.20;99.90;;;;;;4454067;32;20166;-65
2022/01/21 14:13:59;;;;;;;5.53;2.70;;;0.10;99.90;;;;;;4447814;32;20222;-66
2022/01/21 14:16:40;;;;;;;5.30;2.50;;;0.10;99.90;;;;;;4440231;32;20175;-66
2022/01/21 14:19:11;;;;;;;6.87;2.57;;;0.10;99.90;;;;;;4454307;32;20169;-66